Portada
METAR-TAF:

METAR-TAF

Aeroports :

Doha, Qatar

latitud: 25-16-23N, longitud: 51-36-29E, altitud: 4 m

Observació

L'informe es va fer fa 1 hora i 0 minuts, a les 11:00 UTC
Vent 10 kt del Est/Nord-Est
Temperatura 34°C
Humitat 56%
Pressió 1006 hPa
Visibilitat: 7000 m

METAR: OTHH 251100Z 07010KT 7000 NSC 34/24 Q1006 NOSIG

Hora: 15:00 (12:00 UTC)

Pronòstic

L'informe es va fer fa 58 minuts, a les 11:02 UTC
Pronòstic vàlid del 25 a les 12 UTC al 26 a les 18 UTC
Vent 9 kt del Est/Nord-Est
Visibilitat: 8000 m
Evolucionant progressivament
l' 25 a les 21 UTC al 25 a les 23 UTC
Vent 7 kt del Est/Sud-Est
Temporalment
l' 26 a les 00 UTC al 26 a les 06 UTC
Vent 3 kt amb direcció variable

TAF: OTHH 251102Z 2512/2618 06009KT 8000 NSC BECMG 2521/2523 12007KT TEMPO 2600/2606 VRB03KT

Observacions i pronòstics meteorològics de més de 4000 aeroports (METAR i TAF).

Les estacions disponibles són els punts grocs i vermells al mapa.

Posi el ratolí al punt desitjat per veure el nom de l'estació.

Feu clic per veure les observacions i els pronòstics meteorològics.

Per canviar el mapa: feu clic els botons verds amb una creu de color negre per apropar; al botó verd amb un guió per allunyar la imatge; o en les fletxes verdes per a mapes adjacents.


METAR-TAF: